createdAt,value
2022-12-16T00:01:28.044Z,-2.37
2022-12-16T00:04:44.544Z,-2.35
2022-12-16T00:08:01.189Z,-2.37
2022-12-16T00:11:18.484Z,-2.38
2022-12-16T00:14:34.847Z,-2.36
2022-12-16T00:17:51.145Z,-2.37
2022-12-16T00:21:08.965Z,-2.34
2022-12-16T00:24:25.594Z,-2.29
2022-12-16T00:27:41.724Z,-2.23
2022-12-16T00:31:00.516Z,-2.25
2022-12-16T00:34:16.749Z,-2.30
2022-12-16T00:37:33.643Z,-2.33
2022-12-16T00:40:49.955Z,-2.33
2022-12-16T00:44:08.375Z,-2.31
2022-12-16T00:47:24.630Z,-2.28
2022-12-16T00:50:41.130Z,-2.25
2022-12-16T00:53:57.229Z,-2.25
2022-12-16T00:57:13.466Z,-2.28
2022-12-16T01:00:30.781Z,-2.29
2022-12-16T01:03:47.304Z,-2.26
2022-12-16T01:07:03.661Z,-2.25
2022-12-16T01:10:20.532Z,-2.29
2022-12-16T01:13:37.361Z,-2.28
2022-12-16T01:16:53.723Z,-2.29
2022-12-16T01:20:12.072Z,-2.32
2022-12-16T01:23:28.546Z,-2.37
2022-12-16T01:26:44.999Z,-2.40
2022-12-16T01:30:01.800Z,-2.34
2022-12-16T01:33:19.949Z,-2.32
2022-12-16T01:36:36.292Z,-2.33
2022-12-16T01:39:52.552Z,-2.31
2022-12-16T01:43:11.026Z,-2.37
2022-12-16T01:46:31.539Z,-2.32
2022-12-16T01:49:51.836Z,-2.33
2022-12-16T01:53:12.064Z,-2.31
2022-12-16T01:56:33.465Z,-2.32
2022-12-16T01:59:52.807Z,-2.36
2022-12-16T02:03:09.303Z,-2.36
2022-12-16T02:06:26.348Z,-2.35
2022-12-16T02:09:42.554Z,-2.37
2022-12-16T02:13:02.613Z,-2.36
2022-12-16T02:16:24.788Z,-2.38
2022-12-16T02:20:19.818Z,-2.38
2022-12-16T02:24:22.800Z,-2.32
2022-12-16T02:28:02.544Z,-2.30
2022-12-16T02:31:28.295Z,-2.26
2022-12-16T02:34:50.741Z,-2.26
2022-12-16T02:38:16.575Z,-2.24
2022-12-16T02:41:38.344Z,-2.22
2022-12-16T02:45:00.954Z,-2.19
2022-12-16T02:48:17.721Z,-2.23
2022-12-16T02:51:35.851Z,-2.24
2022-12-16T02:54:53.089Z,-2.25
2022-12-16T02:58:22.363Z,-2.23
2022-12-16T03:01:42.692Z,-2.23
2022-12-16T03:05:04.294Z,-2.20
2022-12-16T03:08:27.080Z,-2.21
2022-12-16T03:11:44.522Z,-2.17
2022-12-16T03:15:03.195Z,-2.15
2022-12-16T03:18:21.722Z,-2.13
2022-12-16T03:21:42.646Z,-2.13
2022-12-16T03:24:59.584Z,-2.07
2022-12-16T03:28:24.662Z,-2.10
2022-12-16T03:31:46.096Z,-2.09
2022-12-16T03:35:05.593Z,-2.06
2022-12-16T03:38:23.112Z,-2.06
2022-12-16T03:41:41.077Z,-2.05
2022-12-16T03:44:58.013Z,-2.05
2022-12-16T03:48:20.020Z,-2.05
2022-12-16T03:51:36.063Z,-2.09
2022-12-16T03:54:52.074Z,-2.06
2022-12-16T03:58:09.451Z,-2.03
2022-12-16T04:01:26.551Z,-2.05
2022-12-16T04:04:42.854Z,-2.05
2022-12-16T04:08:02.146Z,-2.11
2022-12-16T04:11:32.520Z,-2.10
2022-12-16T04:15:02.721Z,-2.07
2022-12-16T04:18:37.031Z,-2.06
2022-12-16T04:22:07.261Z,-2.12
2022-12-16T04:25:29.465Z,-2.09
2022-12-16T04:28:45.636Z,-2.06
2022-12-16T04:32:02.304Z,-2.10
2022-12-16T04:35:29.248Z,-2.10
2022-12-16T04:39:00.270Z,-2.10
2022-12-16T04:42:30.823Z,-2.09
2022-12-16T04:46:02.692Z,-2.10
2022-12-16T04:49:33.268Z,-2.05
2022-12-16T04:53:04.352Z,-2.04
2022-12-16T04:56:33.698Z,-2.03
2022-12-16T05:00:01.793Z,-1.97
2022-12-16T05:03:32.321Z,-1.99
2022-12-16T05:07:03.029Z,-1.93
2022-12-16T05:10:34.347Z,-1.88
2022-12-16T05:14:04.367Z,-1.88
2022-12-16T05:17:42.898Z,-1.83
2022-12-16T05:21:13.444Z,-1.80
2022-12-16T05:24:46.209Z,-1.80
2022-12-16T05:28:16.737Z,-1.83
2022-12-16T05:31:47.034Z,-1.82
2022-12-16T05:35:17.367Z,-1.80
2022-12-16T05:38:47.643Z,-1.80
2022-12-16T05:42:18.259Z,-1.81
2022-12-16T05:45:48.780Z,-1.79
2022-12-16T05:49:18.806Z,-1.73
2022-12-16T05:52:49.288Z,-1.70
2022-12-16T05:56:20.039Z,-1.67
2022-12-16T05:59:50.369Z,-1.65
2022-12-16T06:03:20.489Z,-1.61
2022-12-16T06:06:50.589Z,-1.57
2022-12-16T06:10:21.279Z,-1.53
2022-12-16T06:13:51.595Z,-1.50
2022-12-16T06:17:21.814Z,-1.45
2022-12-16T06:20:52.427Z,-1.41
2022-12-16T06:24:37.341Z,-1.38
2022-12-16T06:28:12.911Z,-1.41
2022-12-16T06:31:43.763Z,-1.45
2022-12-16T06:35:14.352Z,-1.45
2022-12-16T06:38:44.592Z,-1.41
2022-12-16T06:42:14.768Z,-1.35
2022-12-16T06:45:45.105Z,-1.32
2022-12-16T06:49:16.977Z,-1.29
2022-12-16T06:52:48.211Z,-1.29
2022-12-16T06:56:31.094Z,-1.27
2022-12-16T07:00:02.489Z,-1.26
2022-12-16T07:03:35.766Z,-1.25
2022-12-16T07:07:05.315Z,-1.23
2022-12-16T07:10:35.765Z,-1.20
2022-12-16T07:14:06.556Z,-1.22
2022-12-16T07:17:36.726Z,-1.19
2022-12-16T07:21:06.871Z,-1.18
2022-12-16T07:24:36.982Z,-1.18
2022-12-16T07:28:15.684Z,-1.18
2022-12-16T07:31:45.796Z,-1.16
2022-12-16T07:35:15.935Z,-1.17
2022-12-16T07:38:46.054Z,-1.14
2022-12-16T07:42:16.340Z,-1.10
2022-12-16T07:45:48.285Z,-1.09
2022-12-16T07:49:18.575Z,-1.08
2022-12-16T07:52:49.025Z,-1.06
2022-12-16T07:56:19.399Z,-1.02
2022-12-16T07:59:49.968Z,-1.02
2022-12-16T08:03:20.480Z,-1.02
2022-12-16T08:06:51.026Z,-1.00
2022-12-16T08:10:23.837Z,-0.99
2022-12-16T08:13:53.923Z,-1.01
2022-12-16T08:17:24.806Z,-0.99
2022-12-16T08:20:55.481Z,-1.01
2022-12-16T08:24:25.941Z,-1.01
2022-12-16T08:27:56.246Z,-0.98
2022-12-16T08:31:26.782Z,-1.02
2022-12-16T08:34:53.414Z,-1.04
2022-12-16T08:38:24.313Z,-1.04
2022-12-16T08:41:54.393Z,-1.04
2022-12-16T08:45:26.839Z,-1.00
2022-12-16T08:48:56.709Z,-1.05
2022-12-16T08:52:28.802Z,-1.03
2022-12-16T08:55:59.977Z,-1.02
2022-12-16T08:59:30.405Z,-0.99
2022-12-16T09:03:00.713Z,-0.94
2022-12-16T09:06:35.570Z,-0.91
2022-12-16T09:10:03.486Z,-0.89
2022-12-16T09:13:36.405Z,-0.87
2022-12-16T09:17:08.036Z,-0.82
2022-12-16T09:20:39.663Z,-0.76
2022-12-16T09:24:09.815Z,-0.71
2022-12-16T09:27:39.951Z,-0.69
2022-12-16T09:31:10.427Z,-0.66
2022-12-16T09:34:40.827Z,-0.59
2022-12-16T09:38:11.519Z,-0.65
2022-12-16T09:42:05.570Z,-0.63
2022-12-16T09:45:46.427Z,-0.67
2022-12-16T09:49:21.177Z,-0.56
2022-12-16T09:52:56.283Z,-0.56
2022-12-16T09:56:33.972Z,-0.66
2022-12-16T10:00:09.236Z,-0.72
2022-12-16T10:03:45.644Z,-0.68
2022-12-16T10:07:20.475Z,-0.71
2022-12-16T10:10:55.829Z,-0.66
2022-12-16T10:14:31.306Z,-0.60
2022-12-16T10:18:05.403Z,-0.55
2022-12-16T10:21:40.706Z,-0.49
2022-12-16T10:25:23.250Z,-0.55
2022-12-16T10:28:59.977Z,-0.58
2022-12-16T10:32:41.569Z,-0.53
2022-12-16T10:36:16.112Z,-0.61
2022-12-16T10:39:53.423Z,-0.62
2022-12-16T10:43:33.340Z,-0.56
2022-12-16T10:47:04.982Z,-0.52
2022-12-16T10:50:38.614Z,-0.44
2022-12-16T10:54:17.109Z,-0.55
2022-12-16T10:58:16.656Z,-0.50
2022-12-16T11:01:50.280Z,-0.54
2022-12-16T11:05:41.001Z,-0.50
2022-12-16T11:09:11.604Z,-0.56
2022-12-16T11:12:58.782Z,-0.50
2022-12-16T11:16:40.235Z,-0.46
2022-12-16T11:20:16.232Z,-0.44
2022-12-16T11:23:52.394Z,-0.43
2022-12-16T11:27:43.912Z,-0.42
2022-12-16T11:31:39.601Z,-0.41
2022-12-16T11:35:19.398Z,-0.41
2022-12-16T11:39:18.684Z,-0.36
2022-12-16T11:42:52.695Z,-0.35
2022-12-16T11:46:31.206Z,-0.23
2022-12-16T11:50:13.791Z,-0.35
2022-12-16T11:57:58.744Z,-0.38
2022-12-16T12:01:44.757Z,-0.52
2022-12-16T12:05:12.098Z,-0.47
2022-12-16T12:08:47.799Z,-0.43
2022-12-16T12:12:24.406Z,-0.44
2022-12-16T12:16:00.832Z,-0.33
2022-12-16T12:19:39.316Z,-0.28
2022-12-16T12:23:07.822Z,-0.20
2022-12-16T12:26:43.456Z,-0.23
2022-12-16T12:30:23.358Z,-0.41
2022-12-16T12:33:59.160Z,-0.37
2022-12-16T12:37:46.019Z,-0.37
2022-12-16T12:41:21.569Z,-0.42
2022-12-16T12:44:57.076Z,-0.30
2022-12-16T12:48:32.888Z,-0.25
2022-12-16T12:52:08.666Z,-0.34
2022-12-16T12:55:46.748Z,-0.36
2022-12-16T12:59:29.764Z,-0.34
2022-12-16T13:03:07.832Z,-0.36
2022-12-16T13:06:42.536Z,-0.29
2022-12-16T13:10:34.768Z,-0.21
2022-12-16T13:14:05.209Z,-0.20
2022-12-16T13:17:35.663Z,-0.21
2022-12-16T13:21:07.509Z,-0.28
2022-12-16T13:25:04.802Z,-0.31
2022-12-16T13:28:46.603Z,-0.24
2022-12-16T13:32:41.201Z,-0.35
2022-12-16T13:36:19.645Z,-0.36
2022-12-16T13:39:51.901Z,-0.48
2022-12-16T13:43:24.084Z,-0.53
2022-12-16T13:47:09.824Z,-0.38
2022-12-16T13:51:00.430Z,-0.36
2022-12-16T13:54:31.679Z,-0.30
2022-12-16T13:58:05.498Z,-0.31
2022-12-16T14:01:40.528Z,-0.27
2022-12-16T14:05:13.971Z,-0.21
2022-12-16T14:08:46.167Z,-0.32
2022-12-16T14:12:20.893Z,-0.40
2022-12-16T14:15:58.081Z,-0.45
2022-12-16T14:19:44.236Z,-0.49
2022-12-16T14:23:47.430Z,-0.50
2022-12-16T14:26:56.541Z,-0.38
2022-12-16T14:30:41.010Z,-0.28
2022-12-16T14:34:15.989Z,-0.29
2022-12-16T14:37:55.098Z,-0.28
2022-12-16T14:41:25.976Z,-0.41
2022-12-16T14:44:56.591Z,-0.38
2022-12-16T14:48:47.462Z,-0.44
2022-12-16T14:52:27.042Z,-0.40
2022-12-16T14:55:59.299Z,-0.41
2022-12-16T14:59:37.401Z,-0.43
2022-12-16T15:03:10.707Z,-0.44
2022-12-16T15:06:48.915Z,-0.48
2022-12-16T15:10:21.216Z,-0.47
2022-12-16T15:13:52.575Z,-0.53
2022-12-16T15:17:23.423Z,-0.52
2022-12-16T15:20:57.778Z,-0.54
2022-12-16T15:24:38.718Z,-0.59
2022-12-16T15:28:16.771Z,-0.59
2022-12-16T15:31:52.427Z,-0.59
2022-12-16T15:35:25.653Z,-0.63
2022-12-16T15:38:56.917Z,-0.65
2022-12-16T15:42:53.642Z,-0.70
2022-12-16T15:46:23.196Z,-0.69
2022-12-16T15:50:03.517Z,-0.76
2022-12-16T15:53:55.382Z,-0.74
2022-12-16T15:57:40.802Z,-0.60
2022-12-16T16:01:21.206Z,-0.62
2022-12-16T16:04:55.071Z,-0.68
2022-12-16T16:08:26.158Z,-0.68
2022-12-16T16:11:56.439Z,-0.61
2022-12-16T16:15:29.764Z,-0.58
2022-12-16T16:19:00.574Z,-0.54
2022-12-16T16:22:44.704Z,-0.51
2022-12-16T16:26:15.012Z,-0.40
2022-12-16T16:29:45.174Z,-0.38
2022-12-16T16:33:15.055Z,-0.36
2022-12-16T16:36:45.387Z,-0.35
2022-12-16T16:40:28.649Z,-0.57
2022-12-16T16:43:55.177Z,-0.55
2022-12-16T16:47:27.016Z,-0.55
2022-12-16T16:50:57.211Z,-0.46
2022-12-16T16:54:27.722Z,-0.40
2022-12-16T16:57:59.613Z,-0.40
2022-12-16T17:01:34.847Z,-0.38
2022-12-16T17:05:05.848Z,-0.35
2022-12-16T17:08:36.267Z,-0.34
2022-12-16T17:12:06.799Z,-0.39
2022-12-16T17:15:45.022Z,-0.34
2022-12-16T17:19:15.762Z,-0.45
2022-12-16T17:22:49.269Z,-0.48
2022-12-16T17:26:19.862Z,-0.64
2022-12-16T17:29:50.535Z,-0.71
2022-12-16T17:33:26.827Z,-0.73
2022-12-16T17:36:56.918Z,-0.67
2022-12-16T17:40:29.195Z,-0.62
2022-12-16T17:43:59.911Z,-0.69
2022-12-16T17:47:30.126Z,-0.74
2022-12-16T17:51:09.081Z,-0.84
2022-12-16T17:54:48.017Z,-0.82
2022-12-16T17:58:18.969Z,-0.84
2022-12-16T18:01:49.372Z,-0.93
2022-12-16T18:05:19.910Z,-1.05
2022-12-16T18:08:50.104Z,-1.00
2022-12-16T18:12:21.853Z,-0.93
2022-12-16T18:15:52.345Z,-0.94
2022-12-16T18:19:23.099Z,-1.04
2022-12-16T18:22:53.599Z,-1.03
2022-12-16T18:26:27.174Z,-1.14
2022-12-16T18:29:57.539Z,-1.04
2022-12-16T18:33:28.267Z,-0.91
2022-12-16T18:37:06.836Z,-0.91
2022-12-16T18:40:37.101Z,-1.04
2022-12-16T18:44:07.999Z,-1.00
2022-12-16T18:47:43.599Z,-0.86
2022-12-16T18:51:19.052Z,-0.94
2022-12-16T18:54:49.353Z,-0.91
2022-12-16T18:58:49.675Z,-0.96
2022-12-16T19:01:51.579Z,-0.90
2022-12-16T19:05:22.118Z,-0.89
2022-12-16T19:08:54.554Z,-0.80
2022-12-16T19:12:26.684Z,-0.82
2022-12-16T19:15:58.554Z,-0.82
2022-12-16T19:19:29.956Z,-0.80
2022-12-16T19:23:00.786Z,-0.77
2022-12-16T19:26:31.201Z,-0.81
2022-12-16T19:30:01.749Z,-0.94
2022-12-16T19:33:37.438Z,-0.93
2022-12-16T19:37:07.830Z,-0.95
2022-12-16T19:40:38.551Z,-0.88
2022-12-16T19:44:08.594Z,-0.89
2022-12-16T19:47:39.839Z,-0.97
2022-12-16T19:51:11.790Z,-0.95
2022-12-16T19:54:42.174Z,-0.93
2022-12-16T19:58:12.668Z,-0.87
2022-12-16T20:01:42.813Z,-0.90
2022-12-16T20:05:13.287Z,-0.95
2022-12-16T20:08:43.764Z,-0.98
2022-12-16T20:12:14.028Z,-1.01
2022-12-16T20:15:45.581Z,-1.09
2022-12-16T20:19:19.129Z,-1.24
2022-12-16T20:22:49.591Z,-1.23
2022-12-16T20:26:22.487Z,-1.19
2022-12-16T20:29:53.358Z,-1.11
2022-12-16T20:33:23.835Z,-1.17
2022-12-16T20:36:54.192Z,-1.38
2022-12-16T20:40:31.649Z,-1.50
2022-12-16T20:44:02.388Z,-1.56
2022-12-16T20:47:35.442Z,-1.53
2022-12-16T20:51:08.113Z,-1.47
2022-12-16T20:54:38.421Z,-1.38
2022-12-16T20:58:09.361Z,-1.41
2022-12-16T21:01:47.923Z,-1.39
2022-12-16T21:05:13.904Z,-1.41
2022-12-16T21:08:44.617Z,-1.41
2022-12-16T21:12:16.143Z,-1.47
2022-12-16T21:15:46.640Z,-1.54
2022-12-16T21:19:24.589Z,-1.59
2022-12-16T21:22:55.474Z,-1.52
2022-12-16T21:26:26.648Z,-1.50
2022-12-16T21:29:56.955Z,-1.59
2022-12-16T21:33:32.707Z,-1.73
2022-12-16T21:37:02.886Z,-1.65
2022-12-16T21:40:34.363Z,-1.60
2022-12-16T21:44:04.469Z,-1.57
2022-12-16T21:47:34.514Z,-1.44
2022-12-16T21:51:05.320Z,-1.36
2022-12-16T21:54:35.486Z,-1.33
2022-12-16T21:58:07.916Z,-1.33
2022-12-16T22:01:38.512Z,-1.38
2022-12-16T22:05:08.914Z,-1.40
2022-12-16T22:08:39.410Z,-1.51
2022-12-16T22:12:09.987Z,-1.56
2022-12-16T22:15:40.598Z,-1.58
2022-12-16T22:19:12.380Z,-1.56
2022-12-16T22:22:42.762Z,-1.57
2022-12-16T22:26:28.088Z,-1.56
2022-12-16T22:29:58.608Z,-1.69
2022-12-16T22:33:28.176Z,-1.70
2022-12-16T22:36:58.951Z,-1.75
2022-12-16T22:40:31.764Z,-1.83
2022-12-16T22:43:58.402Z,-1.87
2022-12-16T22:47:29.111Z,-1.88
2022-12-16T22:50:59.576Z,-1.97
2022-12-16T22:54:29.848Z,-1.93
2022-12-16T22:58:00.250Z,-1.89
2022-12-16T23:01:31.816Z,-1.80
2022-12-16T23:05:02.411Z,-1.82
2022-12-16T23:08:33.117Z,-1.92
2022-12-16T23:12:04.577Z,-2.00
2022-12-16T23:15:36.828Z,-1.87
2022-12-16T23:19:06.934Z,-1.81
2022-12-16T23:22:37.123Z,-1.83
2022-12-16T23:26:16.041Z,-1.86
2022-12-16T23:29:46.220Z,-1.84
2022-12-16T23:33:22.885Z,-1.90
2022-12-16T23:36:53.424Z,-1.95
2022-12-16T23:40:25.054Z,-2.00
2022-12-16T23:43:55.673Z,-2.10
2022-12-16T23:47:26.664Z,-2.15
2022-12-16T23:50:56.909Z,-2.08
2022-12-16T23:54:27.224Z,-2.16
2022-12-16T23:57:59.101Z,-2.07
